Time;durP1;ratioP1;P1;durP2;ratioP2;P2;SDS_P1;SDS_P2;PMS_P1;PMS_P2;Temp;Humidity;BMP_temperature;BMP_pressure;BME280_temperature;BME280_humidity;BME280_pressure;Samples;Min_cycle;Max_cycle;Signal;HPM_P1;HPM_P2
2021/05/21 00:01:31;;;;;;;12.65;10.40;;;15.40;99.90;;;;;;4975355;28;20389;-78
2021/05/21 00:03:57;;;;;;;13.82;10.05;;;15.40;99.90;;;;;;4975339;28;20062;-79
2021/05/21 00:06:23;;;;;;;11.40;9.60;;;15.40;99.90;;;;;;4974055;28;20050;-79
2021/05/21 00:08:49;;;;;;;12.82;9.75;;;15.30;99.90;;;;;;4975433;28;20496;-79
2021/05/21 00:11:14;;;;;;;11.30;10.10;;;15.40;99.90;;;;;;5006602;28;20060;-79
2021/05/21 00:13:40;;;;;;;18.58;10.73;;;15.30;99.90;;;;;;4975772;28;20030;-79
2021/05/21 00:16:06;;;;;;;15.90;10.27;;;15.30;99.90;;;;;;4975500;28;20027;-79
2021/05/21 00:18:32;;;;;;;15.88;10.85;;;15.30;99.90;;;;;;4975477;28;20030;-78
2021/05/21 00:20:58;;;;;;;14.38;10.65;;;15.30;99.90;;;;;;4975385;28;20039;-77
2021/05/21 00:23:23;;;;;;;13.15;10.32;;;15.30;99.90;;;;;;4975079;28;20496;-77
2021/05/21 00:25:49;;;;;;;15.10;10.35;;;15.30;99.90;;;;;;4974943;28;20378;-77
2021/05/21 00:28:15;;;;;;;15.70;12.07;;;15.20;99.90;;;;;;4975259;28;20047;-78
2021/05/21 00:30:40;;;;;;;12.18;10.40;;;15.20;99.90;;;;;;4975304;28;20031;-78
2021/05/21 00:33:06;;;;;;;13.43;10.40;;;15.20;99.90;;;;;;4974686;28;20026;-78
2021/05/21 00:35:32;;;;;;;14.23;11.40;;;15.20;99.90;;;;;;4974620;28;20042;-77
2021/05/21 00:37:57;;;;;;;12.00;10.57;;;15.10;99.90;;;;;;4974116;28;20027;-77
2021/05/21 00:40:24;;;;;;;22.02;11.82;;;15.10;99.90;;;;;;4974035;28;20039;-78
2021/05/21 00:42:49;;;;;;;17.75;13.13;;;15.10;99.90;;;;;;4974580;28;20493;-78
2021/05/21 00:45:15;;;;;;;19.90;12.20;;;15.10;99.90;;;;;;4974777;28;20027;-77
2021/05/21 00:47:44;;;;;;;18.38;13.07;;;15.00;99.90;;;;;;4974498;28;20377;-78
2021/05/21 00:50:10;;;;;;;18.15;12.52;;;15.00;99.90;;;;;;4974570;28;20031;-78
2021/05/21 00:52:38;;;;;;;21.27;13.75;;;15.00;99.90;;;;;;4974387;28;20078;-78
2021/05/21 00:55:08;;;;;;;16.77;14.35;;;15.00;99.90;;;;;;5005749;28;20019;-78
2021/05/21 00:57:40;;;;;;;26.02;18.55;;;14.90;99.90;;;;;;5005677;28;20417;-77
2021/05/21 01:00:07;;;;;;;27.10;19.60;;;14.90;99.90;;;;;;4974489;28;20439;-77
2021/05/21 01:02:33;;;;;;;26.17;19.05;;;14.80;99.80;;;;;;4974361;28;20058;-77
2021/05/21 01:04:59;;;;;;;26.20;17.63;;;14.80;99.70;;;;;;5005813;28;20042;-78
2021/05/21 01:07:25;;;;;;;26.83;17.05;;;14.70;99.70;;;;;;4974216;28;20026;-78
2021/05/21 01:09:51;;;;;;;20.75;14.88;;;14.60;99.70;;;;;;4972878;28;20425;-77
2021/05/21 01:12:17;;;;;;;21.42;14.40;;;14.60;99.70;;;;;;4974046;28;20403;-77
2021/05/21 01:14:53;;;;;;;17.50;14.63;;;14.50;99.70;;;;;;4974575;28;20023;-78
2021/05/21 01:17:20;;;;;;;18.55;13.00;;;14.50;99.80;;;;;;4975079;28;20022;-79
2021/05/21 01:19:47;;;;;;;17.27;12.73;;;14.50;99.90;;;;;;4975525;28;20031;-78
2021/05/21 01:22:14;;;;;;;15.35;12.23;;;14.40;99.90;;;;;;4975434;28;20358;-79
2021/05/21 01:24:40;;;;;;;17.45;13.07;;;14.40;99.90;;;;;;4976873;28;20034;-79
2021/05/21 01:27:08;;;;;;;14.77;12.40;;;14.40;99.90;;;;;;4975141;28;20050;-79
2021/05/21 01:29:34;;;;;;;15.57;12.52;;;14.30;99.90;;;;;;4974481;28;20481;-79
2021/05/21 01:32:01;;;;;;;20.33;13.35;;;14.30;99.90;;;;;;4974145;28;20029;-77
2021/05/21 01:34:28;;;;;;;20.52;13.60;;;14.30;99.90;;;;;;4973855;28;20026;-76
2021/05/21 01:36:54;;;;;;;23.70;14.43;;;14.20;99.90;;;;;;4973793;28;20030;-76
2021/05/21 01:39:20;;;;;;;26.08;15.02;;;14.20;99.90;;;;;;4973692;28;20038;-77
2021/05/21 01:41:46;;;;;;;23.20;14.95;;;14.20;99.90;;;;;;4974033;28;20101;-76
2021/05/21 01:44:15;;;;;;;20.52;14.63;;;14.20;99.90;;;;;;4974129;28;20023;-76
2021/05/21 01:46:41;;;;;;;25.23;15.32;;;14.10;99.90;;;;;;4973653;28;20543;-76
2021/05/21 01:49:07;;;;;;;17.63;12.30;;;14.10;99.90;;;;;;4973759;28;20466;-77
2021/05/21 01:51:34;;;;;;;14.88;10.98;;;14.10;99.90;;;;;;4973558;28;20033;-77
2021/05/21 01:54:13;;;;;;;15.85;10.85;;;14.10;99.90;;;;;;4973639;28;20023;-77
2021/05/21 01:56:39;;;;;;;15.13;9.85;;;14.10;99.90;;;;;;4973673;28;20029;-76
2021/05/21 01:59:05;;;;;;;11.80;10.05;;;14.00;99.90;;;;;;4973572;28;20031;-70
2021/05/21 02:01:31;;;;;;;13.38;9.88;;;14.00;99.90;;;;;;4973182;28;20102;-71
2021/05/21 02:04:00;;;;;;;13.48;9.10;;;14.00;99.90;;;;;;4973243;28;20027;-71
2021/05/21 02:06:28;;;;;;;10.70;8.65;;;14.00;99.90;;;;;;4973327;28;20023;-71
2021/05/21 02:08:54;;;;;;;11.25;8.43;;;14.00;99.90;;;;;;4973321;28;20026;-71
2021/05/21 02:11:20;;;;;;;16.73;8.18;;;14.00;99.90;;;;;;4973091;28;20034;-71
2021/05/21 02:13:46;;;;;;;11.02;7.85;;;14.00;99.90;;;;;;4973270;28;20026;-71
2021/05/21 02:16:12;;;;;;;10.60;7.97;;;14.00;99.90;;;;;;4973233;28;20037;-71
2021/05/21 02:18:38;;;;;;;10.30;7.35;;;13.90;99.80;;;;;;4973050;28;20488;-71
2021/05/21 02:21:04;;;;;;;13.18;7.30;;;13.90;99.70;;;;;;4973069;28;20035;-70
2021/05/21 02:23:30;;;;;;;11.10;8.43;;;14.00;99.60;;;;;;4972994;28;20034;-70
2021/05/21 02:25:56;;;;;;;7.00;6.00;;;13.90;99.50;;;;;;4973127;28;20029;-70
2021/05/21 02:28:21;;;;;;;7.43;5.05;;;13.90;99.50;;;;;;4972882;28;20125;-71
2021/05/21 02:30:47;;;;;;;6.00;4.00;;;13.90;99.30;;;;;;4973078;28;20023;-72
2021/05/21 02:33:13;;;;;;;5.03;4.32;;;14.00;99.20;;;;;;4972887;28;20023;-71
2021/05/21 02:35:38;;;;;;;6.43;4.70;;;14.10;99.20;;;;;;5004602;28;20031;-71
2021/05/21 02:38:04;;;;;;;8.90;5.43;;;14.10;99.10;;;;;;4973149;28;20038;-71
2021/05/21 02:40:30;;;;;;;11.18;5.32;;;14.20;99.20;;;;;;4972972;28;20425;-71
2021/05/21 02:42:57;;;;;;;9.25;4.43;;;14.40;99.70;;;;;;4972993;28;20031;-72
2021/05/21 02:45:23;;;;;;;5.38;4.03;;;14.60;99.30;;;;;;4972689;28;20054;-72
2021/05/21 02:47:49;;;;;;;16.48;4.68;;;14.90;99.70;;;;;;4972689;28;20164;-72
2021/05/21 02:50:15;;;;;;;6.28;3.97;;;15.30;99.90;;;;;;4972834;28;20125;-72
2021/05/21 02:52:41;;;;;;;9.98;3.33;;;16.10;99.90;;;;;;4972885;28;20034;-72
2021/05/21 02:55:07;;;;;;;4.35;3.22;;;17.20;99.90;;;;;;4972733;28;20027;-72
2021/05/21 02:57:33;;;;;;;6.07;4.15;;;18.50;99.90;;;;;;4972614;28;20031;-72
2021/05/21 02:59:58;;;;;;;5.80;2.97;;;19.80;97.00;;;;;;4972707;28;20030;-72
2021/05/21 03:02:24;;;;;;;6.85;3.30;;;20.70;92.70;;;;;;5005651;28;20027;-72
2021/05/21 03:04:51;;;;;;;5.13;3.20;;;21.60;89.60;;;;;;4976448;28;20065;-71
2021/05/21 03:07:17;;;;;;;7.22;3.17;;;22.70;84.80;;;;;;4976396;28;20038;-71
2021/05/21 03:09:43;;;;;;;3.25;2.83;;;23.80;80.60;;;;;;4976240;28;20023;-72
2021/05/21 03:12:09;;;;;;;3.38;3.00;;;25.00;76.50;;;;;;4976401;28;20042;-72
2021/05/21 03:14:36;;;;;;;6.93;3.03;;;26.00;72.40;;;;;;4976311;28;20033;-71
2021/05/21 03:17:02;;;;;;;7.13;2.90;;;26.90;68.40;;;;;;4976249;28;20030;-71
2021/05/21 03:19:28;;;;;;;3.80;2.60;;;27.80;64.90;;;;;;4976064;28;20492;-71
2021/05/21 03:21:54;;;;;;;5.30;2.80;;;28.40;62.20;;;;;;4975861;28;20045;-71
2021/05/21 03:24:20;;;;;;;3.33;2.60;;;29.00;59.90;;;;;;4976104;28;20489;-72
2021/05/21 03:26:46;;;;;;;5.07;2.85;;;29.50;58.00;;;;;;4975925;28;20120;-71
2021/05/21 03:29:13;;;;;;;4.07;2.65;;;29.60;56.20;;;;;;4976072;28;20055;-72
2021/05/21 03:31:39;;;;;;;5.15;2.90;;;29.40;54.60;;;;;;4976158;28;20065;-78
2021/05/21 03:34:05;;;;;;;8.70;3.15;;;28.80;53.30;;;;;;4976147;28;20748;-78
2021/05/21 03:36:30;;;;;;;6.55;2.95;;;27.60;53.50;;;;;;4975614;28;20039;-79
2021/05/21 03:38:56;;;;;;;6.00;2.90;;;26.60;54.40;;;;;;4976320;28;20027;-77
2021/05/21 03:41:22;;;;;;;6.65;3.40;;;25.70;55.00;;;;;;4975658;28;20045;-78
2021/05/21 03:43:49;;;;;;;5.78;3.70;;;24.90;55.50;;;;;;4975633;28;20031;-77
2021/05/21 03:46:15;;;;;;;5.20;3.63;;;23.90;56.20;;;;;;4975865;28;20019;-78
2021/05/21 03:48:41;;;;;;;3.55;2.85;;;22.90;57.40;;;;;;4975420;28;20031;-77
2021/05/21 03:51:08;;;;;;;5.30;3.08;;;22.10;59.40;;;;;;4975438;28;20054;-78
2021/05/21 03:53:33;;;;;;;7.28;2.90;;;21.50;60.50;;;;;;4975143;28;20089;-78
2021/05/21 03:55:59;;;;;;;3.70;3.17;;;21.00;60.50;;;;;;4975458;28;20027;-78
2021/05/21 03:58:25;;;;;;;6.55;2.60;;;20.40;61.70;;;;;;4975250;28;20488;-78
2021/05/21 04:00:51;;;;;;;5.28;2.95;;;20.00;62.30;;;;;;4975598;28;20023;-78
2021/05/21 04:03:16;;;;;;;7.15;3.00;;;19.60;63.00;;;;;;4975030;28;20458;-79
2021/05/21 04:05:42;;;;;;;3.63;2.78;;;19.40;64.40;;;;;;4975369;28;20023;-79
2021/05/21 04:08:08;;;;;;;6.18;2.92;;;19.40;64.60;;;;;;4975185;28;20033;-79
2021/05/21 04:10:35;;;;;;;2.55;2.20;;;19.30;65.20;;;;;;4975167;28;20155;-78
2021/05/21 04:13:01;;;;;;;3.53;2.03;;;19.40;64.70;;;;;;4975212;28;20517;-78
2021/05/21 04:15:27;;;;;;;7.90;3.70;;;19.40;64.50;;;;;;4973898;28;20105;-78
2021/05/21 04:17:53;;;;;;;8.15;5.78;;;19.30;64.60;;;;;;4975010;28;20027;-78
2021/05/21 04:20:18;;;;;;;3.17;2.40;;;19.40;64.90;;;;;;4975197;28;20042;-78
2021/05/21 04:22:44;;;;;;;5.75;2.92;;;19.60;65.40;;;;;;4975245;28;20031;-79
2021/05/21 04:25:10;;;;;;;4.68;2.70;;;20.00;65.30;;;;;;4974633;28;20041;-78
2021/05/21 04:27:36;;;;;;;2.75;2.08;;;20.20;64.40;;;;;;4974345;28;20030;-71
2021/05/21 04:30:03;;;;;;;2.80;2.28;;;20.50;62.80;;;;;;4974465;28;20359;-71
2021/05/21 04:32:28;;;;;;;2.70;1.95;;;20.70;62.00;;;;;;4974378;28;20018;-69
2021/05/21 04:34:54;;;;;;;5.72;3.03;;;20.90;61.50;;;;;;4974340;28;20023;-71
2021/05/21 04:37:20;;;;;;;2.38;1.80;;;21.20;60.80;;;;;;4974217;28;20113;-72
2021/05/21 04:39:45;;;;;;;1.70;1.60;;;21.40;60.80;;;;;;4973137;28;20031;-71
2021/05/21 04:42:11;;;;;;;4.03;2.13;;;22.00;61.00;;;;;;4974263;28;20030;-71
2021/05/21 04:44:37;;;;;;;1.92;1.70;;;23.00;60.50;;;;;;4974305;28;20086;-73
2021/05/21 04:47:02;;;;;;;2.00;1.80;;;24.50;59.60;;;;;;4974097;28;20389;-71
2021/05/21 04:49:35;;;;;;;1.77;1.65;;;26.30;57.60;;;;;;4973737;28;20101;-72
2021/05/21 04:52:05;;;;;;;4.97;2.08;;;27.50;54.10;;;;;;4973912;28;20527;-72
2021/05/21 04:54:32;;;;;;;3.65;1.95;;;28.10;50.70;;;;;;4973634;28;20023;-72
2021/05/21 04:56:58;;;;;;;3.45;1.70;;;28.50;50.50;;;;;;4973785;28;20023;-71
2021/05/21 04:59:23;;;;;;;5.57;2.20;;;28.60;48.70;;;;;;4973396;28;20367;-72
2021/05/21 05:01:50;;;;;;;1.80;1.70;;;28.50;48.40;;;;;;4973893;28;20034;-71
2021/05/21 05:04:15;;;;;;;1.70;1.60;;;28.50;47.70;;;;;;4973289;28;20473;-72
2021/05/21 05:06:42;;;;;;;3.10;1.90;;;28.50;47.50;;;;;;4973401;28;20037;-71
2021/05/21 05:09:09;;;;;;;4.30;2.00;;;28.30;46.90;;;;;;4973332;28;20023;-72
2021/05/21 05:11:37;;;;;;;3.47;2.28;;;28.00;47.20;;;;;;4973442;28;20077;-72
2021/05/21 05:14:03;;;;;;;3.08;2.10;;;28.60;48.10;;;;;;4972568;28;20408;-73
2021/05/21 05:16:29;;;;;;;10.43;3.05;;;30.00;47.30;;;;;;4973090;28;20030;-73
2021/05/21 05:18:55;;;;;;;3.88;1.92;;;31.30;46.10;;;;;;4972659;28;20038;-73
2021/05/21 05:21:21;;;;;;;2.95;2.10;;;32.60;44.40;;;;;;4972693;28;20512;-73
2021/05/21 05:23:48;;;;;;;2.53;1.88;;;33.80;42.20;;;;;;4971524;28;20526;-72
2021/05/21 05:26:14;;;;;;;5.25;2.67;;;34.00;40.20;;;;;;4972716;28;20357;-72
2021/05/21 05:28:47;;;;;;;6.45;4.10;;;33.90;39.20;;;;;;4972521;28;20057;-72
2021/05/21 05:31:13;;;;;;;5.43;2.50;;;34.40;38.80;;;;;;4972864;28;20382;-72
2021/05/21 05:33:40;;;;;;;3.40;2.25;;;34.90;38.50;;;;;;4973091;28;20026;-73
2021/05/21 05:36:07;;;;;;;2.35;2.15;;;35.40;37.60;;;;;;5004100;28;20155;-72
2021/05/21 05:38:33;;;;;;;8.68;2.10;;;36.00;36.30;;;;;;4972984;28;20030;-74
2021/05/21 05:40:59;;;;;;;6.93;2.20;;;36.10;35.40;;;;;;4972553;28;20541;-72
2021/05/21 05:43:24;;;;;;;9.95;2.75;;;36.50;35.50;;;;;;4972821;28;20127;-73
2021/05/21 05:45:51;;;;;;;4.15;2.15;;;37.20;34.90;;;;;;4972576;28;20015;-73
2021/05/21 05:48:19;;;;;;;1.70;1.60;;;37.80;34.20;;;;;;4972910;28;20100;-71
2021/05/21 05:50:46;;;;;;;3.42;1.80;;;38.40;33.40;;;;;;4972721;28;20389;-71
2021/05/21 05:53:12;;;;;;;4.97;2.40;;;38.80;32.90;;;;;;4972778;28;20474;-71
2021/05/21 05:55:40;;;;;;;1.88;1.65;;;39.10;32.40;;;;;;4971537;28;20022;-72
2021/05/21 05:58:07;;;;;;;5.80;1.98;;;39.50;31.90;;;;;;4971387;28;20783;-70
2021/05/21 06:00:33;;;;;;;2.50;1.75;;;39.80;31.40;;;;;;4972211;28;20385;-70
2021/05/21 06:03:07;;;;;;;1.92;1.52;;;39.90;30.80;;;;;;4972269;28;20015;-70
2021/05/21 06:05:33;;;;;;;3.90;2.67;;;39.90;30.20;;;;;;4969952;28;20085;-71
2021/05/21 06:08:01;;;;;;;4.47;1.50;;;40.00;30.30;;;;;;4972383;28;20030;-70
2021/05/21 06:10:28;;;;;;;1.83;1.73;;;40.00;30.00;;;;;;4972762;28;20019;-71
2021/05/21 06:13:05;;;;;;;1.60;1.50;;;40.10;29.90;;;;;;4972445;28;20074;-71
2021/05/21 06:15:31;;;;;;;3.15;1.80;;;40.00;29.70;;;;;;4972457;28;20030;-71
2021/05/21 06:17:58;;;;;;;1.98;1.88;;;39.90;29.80;;;;;;4972266;28;20019;-70
2021/05/21 06:20:27;;;;;;;3.65;2.10;;;39.80;29.80;;;;;;4972485;28;20029;-71
2021/05/21 06:22:53;;;;;;;6.18;2.10;;;39.90;29.80;;;;;;4972502;28;20397;-71
2021/05/21 06:25:23;;;;;;;14.52;3.35;;;39.90;29.90;;;;;;4972149;28;20023;-71
2021/05/21 06:27:49;;;;;;;;;;;40.00;30.20;;;;;;4972466;28;20129;-71
2021/05/21 06:30:15;;;;;;;10.25;3.47;;;40.20;31.00;;;;;;4972406;28;19910;-72
2021/05/21 06:32:43;;;;;;;5.93;2.30;;;40.30;30.50;;;;;;4972186;28;20027;-71
2021/05/21 06:35:10;;;;;;;10.65;2.50;;;40.30;30.00;;;;;;4971838;28;20152;-70
2021/05/21 06:37:36;;;;;;;3.55;2.33;;;40.10;30.00;;;;;;4974118;28;20363;-70
2021/05/21 06:40:04;;;;;;;5.97;2.55;;;40.20;29.90;;;;;;4976136;28;20081;-70
2021/05/21 06:42:29;;;;;;;7.80;2.38;;;40.00;29.80;;;;;;4975794;28;20062;-71
2021/05/21 06:44:55;;;;;;;14.90;4.20;;;40.00;30.10;;;;;;4975921;28;20055;-71
2021/05/21 06:47:21;;;;;;;8.32;2.10;;;40.10;30.00;;;;;;4975501;28;20098;-70
2021/05/21 06:49:48;;;;;;;3.55;2.00;;;40.20;30.00;;;;;;4975712;28;20448;-72
2021/05/21 06:52:14;;;;;;;8.10;1.92;;;40.40;29.90;;;;;;4975875;28;20022;-72
2021/05/21 06:54:44;;;;;;;12.48;2.60;;;40.40;29.70;;;;;;4976063;28;20082;-79
2021/05/21 06:57:10;;;;;;;4.00;2.20;;;40.50;29.90;;;;;;4975825;28;20154;-78
2021/05/21 06:59:35;;;;;;;12.00;2.85;;;40.20;29.90;;;;;;4975950;28;20508;-79
2021/05/21 07:02:02;;;;;;;14.05;2.85;;;39.90;30.20;;;;;;4976391;28;20077;-79
2021/05/21 07:04:28;;;;;;;9.00;2.42;;;39.90;30.50;;;;;;4975959;28;20026;-78
2021/05/21 07:06:54;;;;;;;3.85;2.40;;;39.80;30.40;;;;;;4976099;28;20027;-80
2021/05/21 07:09:20;;;;;;;4.28;2.13;;;39.70;30.20;;;;;;4975554;28;20046;-80
2021/05/21 07:11:45;;;;;;;6.78;3.03;;;39.70;30.50;;;;;;4975807;28;20033;-79
2021/05/21 07:14:11;;;;;;;7.03;2.30;;;39.60;30.70;;;;;;4975968;28;20035;-79
2021/05/21 07:16:37;;;;;;;11.02;3.40;;;39.50;30.50;;;;;;4975351;28;20429;-78
2021/05/21 07:19:03;;;;;;;14.80;3.80;;;39.40;30.50;;;;;;4975137;28;20034;-80
2021/05/21 07:21:29;;;;;;;9.45;2.30;;;38.90;30.30;;;;;;4975078;28;20031;-79
2021/05/21 07:23:55;;;;;;;3.17;2.45;;;38.60;30.60;;;;;;4974983;28;20125;-79
2021/05/21 07:26:21;;;;;;;9.77;3.10;;;38.40;30.70;;;;;;5006108;28;20038;-79
2021/05/21 07:28:47;;;;;;;2.90;2.13;;;38.20;30.70;;;;;;4974553;28;20055;-79
2021/05/21 07:31:14;;;;;;;4.30;2.65;;;38.00;30.90;;;;;;4975037;28;20053;-79
2021/05/21 07:33:39;;;;;;;8.13;2.92;;;37.70;31.20;;;;;;4974860;28;20018;-80
2021/05/21 07:36:06;;;;;;;9.77;2.60;;;37.50;31.60;;;;;;4974534;28;20358;-79
2021/05/21 07:38:32;;;;;;;6.57;2.78;;;37.50;31.30;;;;;;4974472;28;20019;-79
2021/05/21 07:40:58;;;;;;;3.97;2.30;;;37.00;30.90;;;;;;4975728;28;20050;-79
2021/05/21 07:43:24;;;;;;;7.25;2.60;;;36.70;31.30;;;;;;4974604;28;20019;-79
2021/05/21 07:45:50;;;;;;;12.27;3.42;;;36.50;31.70;;;;;;4975020;28;20192;-79
2021/05/21 07:48:15;;;;;;;5.90;2.38;;;36.50;31.90;;;;;;4976849;28;20023;-78
2021/05/21 07:50:41;;;;;;;5.47;2.13;;;36.40;31.80;;;;;;4974644;28;20138;-79
2021/05/21 07:53:09;;;;;;;7.72;3.58;;;36.40;32.00;;;;;;4974705;28;20149;-80
2021/05/21 07:55:36;;;;;;;9.73;2.47;;;36.20;31.80;;;;;;4974454;28;20187;-72
2021/05/21 07:58:02;;;;;;;1.95;1.75;;;35.90;31.50;;;;;;4974365;28;20023;-71
2021/05/21 08:00:28;;;;;;;2.25;1.85;;;35.60;31.40;;;;;;4974400;28;20149;-71
2021/05/21 08:02:53;;;;;;;6.60;1.30;;;35.20;31.30;;;;;;4974589;28;20105;-71
2021/05/21 08:05:19;;;;;;;1.80;1.70;;;34.80;30.90;;;;;;4974173;28;20039;-70
2021/05/21 08:07:45;;;;;;;6.00;1.70;;;34.40;31.50;;;;;;4973836;28;20031;-79
2021/05/21 08:10:11;;;;;;;3.63;1.55;;;33.80;31.80;;;;;;4974266;28;20038;-80
2021/05/21 08:12:37;;;;;;;6.63;2.00;;;33.10;31.80;;;;;;4974210;28;20065;-79
2021/05/21 08:15:04;;;;;;;9.23;1.45;;;32.50;32.80;;;;;;4974109;28;20050;-79
2021/05/21 08:17:33;;;;;;;7.55;1.50;;;32.10;33.20;;;;;;4974242;28;20122;-79
2021/05/21 08:19:59;;;;;;;8.07;1.60;;;31.90;33.50;;;;;;4974191;28;20045;-79
2021/05/21 08:22:25;;;;;;;4.18;1.45;;;31.90;33.80;;;;;;4973527;28;20026;-78
2021/05/21 08:24:51;;;;;;;2.65;1.15;;;32.00;34.00;;;;;;4973677;28;20050;-78
2021/05/21 08:27:17;;;;;;;1.55;1.20;;;32.10;33.90;;;;;;4975115;28;20031;-79
2021/05/21 08:29:42;;;;;;;5.43;1.75;;;32.10;33.70;;;;;;4973984;28;20035;-79
2021/05/21 08:32:08;;;;;;;5.03;3.25;;;32.00;34.00;;;;;;4973950;28;20512;-80
2021/05/21 08:34:37;;;;;;;3.40;1.73;;;31.90;34.20;;;;;;4973838;28;20106;-78
2021/05/21 08:37:03;;;;;;;6.63;1.30;;;31.70;34.80;;;;;;4973842;28;20469;-80
2021/05/21 08:39:28;;;;;;;3.50;2.88;;;31.50;34.00;;;;;;4973492;28;20058;-78
2021/05/21 08:41:57;;;;;;;3.70;1.40;;;31.20;34.00;;;;;;4973465;28;20082;-79
2021/05/21 08:44:24;;;;;;;4.97;1.75;;;30.90;34.10;;;;;;4973114;28;20454;-77
2021/05/21 08:46:51;;;;;;;6.13;1.83;;;30.70;34.40;;;;;;4973279;28;20027;-79
2021/05/21 08:49:19;;;;;;;3.08;1.10;;;30.60;34.90;;;;;;4973333;28;20034;-80
2021/05/21 08:51:45;;;;;;;1.50;1.05;;;30.60;35.00;;;;;;4973499;28;20046;-79
2021/05/21 08:54:11;;;;;;;1.15;1.10;;;30.60;34.80;;;;;;4973233;28;20031;-80
2021/05/21 08:56:38;;;;;;;2.97;1.60;;;30.60;34.40;;;;;;4973368;28;20058;-80
2021/05/21 08:59:04;;;;;;;9.52;1.75;;;30.50;34.70;;;;;;4971568;28;20373;-80
2021/05/21 09:01:30;;;;;;;5.50;1.77;;;30.50;35.10;;;;;;4974751;28;20065;-79
2021/05/21 09:04:01;;;;;;;2.47;1.20;;;30.50;35.20;;;;;;4973674;28;20184;-80
2021/05/21 09:06:28;;;;;;;1.80;1.70;;;30.50;35.20;;;;;;4973567;28;20031;-80
2021/05/21 09:08:59;;;;;;;4.97;1.70;;;30.60;35.10;;;;;;5004772;28;20026;-79
2021/05/21 09:11:40;;;;;;;3.43;1.50;;;30.70;35.30;;;;;;5004192;28;20509;-79
2021/05/21 09:14:18;;;;;;;1.88;0.85;;;30.80;35.50;;;;;;4973055;28;20110;-79
2021/05/21 09:16:45;;;;;;;2.88;1.98;;;30.80;34.90;;;;;;4973344;28;20714;-79
2021/05/21 09:19:15;;;;;;;2.03;1.85;;;30.80;34.30;;;;;;4973131;28;20038;-80
2021/05/21 09:21:55;;;;;;;1.50;1.35;;;30.70;34.80;;;;;;5003919;28;20042;-80
2021/05/21 09:24:33;;;;;;;3.43;1.10;;;30.70;35.00;;;;;;4972636;28;20023;-80
2021/05/21 09:27:00;;;;;;;3.80;1.65;;;30.60;34.90;;;;;;4972892;28;20042;-79
2021/05/21 09:29:45;;;;;;;4.78;1.65;;;30.60;34.80;;;;;;4972704;28;20121;-79
2021/05/21 09:32:21;;;;;;;3.17;2.35;;;30.30;34.90;;;;;;4973029;28;20469;-79
2021/05/21 09:35:05;;;;;;;2.67;2.05;;;30.10;35.20;;;;;;4973073;28;20055;-79
2021/05/21 09:37:32;;;;;;;1.98;0.90;;;29.90;35.30;;;;;;4973449;28;20034;-79
2021/05/21 09:40:07;;;;;;;2.63;1.33;;;29.70;35.00;;;;;;4971917;28;20453;-79
2021/05/21 09:42:53;;;;;;;2.03;1.10;;;29.40;35.60;;;;;;4972877;28;20030;-79
2021/05/21 09:45:22;;;;;;;3.55;1.50;;;29.20;36.00;;;;;;4972057;28;20046;-80
2021/05/21 09:48:00;;;;;;;6.50;2.00;;;28.90;36.20;;;;;;4972393;28;20023;-80
2021/05/21 09:50:49;;;;;;;5.63;2.15;;;28.70;36.50;;;;;;4972390;28;20033;-80
2021/05/21 09:53:24;;;;;;;4.07;1.33;;;28.40;36.60;;;;;;4972141;28;20034;-79
2021/05/21 09:55:57;;;;;;;6.15;2.05;;;28.10;36.50;;;;;;4971846;28;20035;-78
2021/05/21 09:58:23;;;;;;;6.53;1.80;;;27.80;37.50;;;;;;4972563;28;20055;-79
2021/05/21 10:01:17;;;;;;;4.63;1.67;;;27.50;38.00;;;;;;4972332;28;20031;-79
2021/05/21 10:03:49;;;;;;;3.45;1.33;;;27.30;38.00;;;;;;4972594;28;20458;-80
2021/05/21 10:06:16;;;;;;;3.28;1.27;;;27.00;38.00;;;;;;4972137;28;20061;-80
2021/05/21 10:08:45;;;;;;;6.00;1.55;;;26.90;37.90;;;;;;4972307;28;20025;-81
2021/05/21 10:11:11;;;;;;;2.60;1.30;;;26.70;38.30;;;;;;4973571;28;20027;-79
2021/05/21 10:13:37;;;;;;;2.08;1.30;;;26.70;38.60;;;;;;4977957;28;20051;-79
2021/05/21 10:16:04;;;;;;;2.63;1.45;;;26.70;38.50;;;;;;4975911;28;20586;-80
2021/05/21 10:18:31;;;;;;;4.60;1.88;;;26.80;38.70;;;;;;4972255;28;20490;-79
2021/05/21 10:20:57;;;;;;;6.78;2.03;;;26.90;39.20;;;;;;4972282;28;20061;-80
2021/05/21 10:23:26;;;;;;;5.38;1.50;;;26.90;39.40;;;;;;4972538;28;20470;-81
2021/05/21 10:25:56;;;;;;;7.18;1.80;;;26.90;39.40;;;;;;4972703;28;20026;-81
2021/05/21 10:28:28;;;;;;;3.17;1.67;;;26.90;39.10;;;;;;4971875;28;20130;-79
2021/05/21 10:31:00;;;;;;;3.95;1.80;;;26.90;39.10;;;;;;4972131;28;20027;-80
2021/05/21 10:33:32;;;;;;;;;;;26.80;38.90;;;;;;4972175;28;20106;-73
2021/05/21 10:36:16;;;;;;;11.85;2.30;;;26.70;38.80;;;;;;4971620;28;19917;-74
2021/05/21 10:39:07;;;;;;;8.98;2.90;;;26.80;39.00;;;;;;4971795;28;20034;-72
2021/05/21 10:41:35;;;;;;;8.52;2.90;;;26.70;39.30;;;;;;4971841;28;20082;-74
2021/05/21 10:44:01;;;;;;;1.42;1.33;;;26.80;39.70;;;;;;4971714;28;20027;-73
2021/05/21 10:46:28;;;;;;;8.25;2.50;;;26.90;39.60;;;;;;4971708;28;20388;-73
2021/05/21 10:49:02;;;;;;;5.15;1.98;;;26.90;39.60;;;;;;4971842;28;20110;-72
2021/05/21 10:51:51;;;;;;;3.95;1.60;;;26.90;39.30;;;;;;4971462;28;20029;-72
2021/05/21 10:54:30;;;;;;;10.43;2.40;;;26.80;39.10;;;;;;4971009;28;20031;-74
2021/05/21 10:57:08;;;;;;;6.80;1.83;;;26.70;39.30;;;;;;4971521;28;20022;-73
2021/05/21 10:59:55;;;;;;;2.78;1.65;;;26.70;39.30;;;;;;4971608;28;20026;-81
2021/05/21 11:02:44;;;;;;;3.08;1.40;;;26.60;39.00;;;;;;4971753;28;20153;-81
2021/05/21 11:05:31;;;;;;;4.45;2.00;;;26.60;38.80;;;;;;4962169;28;20528;-80
2021/05/21 11:08:02;;;;;;;5.32;2.40;;;26.60;38.90;;;;;;4972336;28;20030;-80
2021/05/21 11:10:41;;;;;;;6.55;2.00;;;26.70;38.80;;;;;;5003671;28;20058;-82
2021/05/21 11:13:18;;;;;;;6.68;2.00;;;26.80;38.80;;;;;;4972406;28;20089;-80
2021/05/21 11:15:48;;;;;;;4.50;1.80;;;26.80;38.60;;;;;;4972916;28;20027;-82
2021/05/21 11:18:26;;;;;;;8.93;2.40;;;26.90;38.60;;;;;;4974524;28;20030;-80
2021/05/21 11:21:06;;;;;;;2.92;1.70;;;27.00;38.40;;;;;;4973286;28;20089;-82
2021/05/21 11:23:48;;;;;;;3.58;1.75;;;27.30;38.80;;;;;;4972885;28;20055;-80
2021/05/21 11:26:14;;;;;;;6.70;1.50;;;27.40;38.00;;;;;;4977084;28;20042;-80
2021/05/21 11:28:54;;;;;;;3.10;2.67;;;27.40;37.60;;;;;;5006981;28;20043;-78
2021/05/21 11:31:24;;;;;;;5.57;1.98;;;27.40;37.50;;;;;;4975632;28;20022;-71
2021/05/21 11:33:53;;;;;;;2.53;1.42;;;27.20;37.30;;;;;;4975183;28;20034;-71
2021/05/21 11:36:21;;;;;;;6.15;2.13;;;27.10;37.20;;;;;;4975061;28;20015;-71
2021/05/21 11:38:47;;;;;;;4.90;1.88;;;27.00;37.60;;;;;;4975147;28;20022;-71
2021/05/21 11:41:14;;;;;;;1.40;1.02;;;26.90;37.50;;;;;;4975151;28;20023;-72
2021/05/21 11:43:42;;;;;;;1.42;1.33;;;26.90;37.10;;;;;;4975033;28;20085;-72
2021/05/21 11:46:17;;;;;;;9.80;1.77;;;26.80;36.90;;;;;;4974660;28;20023;-71
2021/05/21 11:48:43;;;;;;;4.82;1.58;;;26.70;37.10;;;;;;4975066;28;20077;-72
2021/05/21 11:51:16;;;;;;;4.78;1.50;;;26.60;36.90;;;;;;4975016;28;20027;-71
2021/05/21 11:53:52;;;;;;;6.60;2.75;;;26.60;37.10;;;;;;4975079;28;20454;-71
2021/05/21 11:56:37;;;;;;;1.80;1.38;;;26.60;37.60;;;;;;4974875;28;20092;-71
2021/05/21 11:59:13;;;;;;;6.30;1.65;;;26.60;38.00;;;;;;4974863;28;20023;-72
2021/05/21 12:01:57;;;;;;;2.25;1.50;;;26.60;37.70;;;;;;4974610;28;20029;-71
2021/05/21 12:04:28;;;;;;;3.47;1.63;;;26.60;37.90;;;;;;4974956;28;20861;-71
2021/05/21 12:06:53;;;;;;;6.53;2.08;;;26.70;38.30;;;;;;4974718;28;20458;-73
2021/05/21 12:09:22;;;;;;;8.35;2.40;;;26.60;38.20;;;;;;4974716;28;20133;-73
2021/05/21 12:11:52;;;;;;;2.13;1.85;;;26.60;38.60;;;;;;4974904;28;20027;-73
2021/05/21 12:14:29;;;;;;;2.50;2.10;;;26.60;38.40;;;;;;4974608;28;20034;-74
2021/05/21 12:16:57;;;;;;;2.30;1.20;;;26.50;38.30;;;;;;4974615;28;20022;-73
2021/05/21 12:19:25;;;;;;;2.20;1.50;;;26.40;38.20;;;;;;5005688;28;20481;-71
2021/05/21 12:21:54;;;;;;;3.63;1.48;;;26.20;38.40;;;;;;4974349;28;20541;-72
2021/05/21 12:24:22;;;;;;;6.10;2.30;;;26.10;38.80;;;;;;4974581;28;20094;-74
2021/05/21 12:26:52;;;;;;;12.65;2.65;;;25.80;39.00;;;;;;4974820;28;20080;-73
2021/05/21 12:29:19;;;;;;;46.72;5.60;;;25.70;39.40;;;;;;4974257;28;20042;-73
2021/05/21 12:31:51;;;;;;;6.80;2.05;;;25.50;39.80;;;;;;4974227;28;20102;-73
2021/05/21 12:34:18;;;;;;;4.22;2.30;;;25.40;40.30;;;;;;4973249;28;20019;-73
2021/05/21 12:36:50;;;;;;;12.10;4.40;;;25.40;40.20;;;;;;4974029;28;20037;-75
2021/05/21 12:39:16;;;;;;;8.18;4.22;;;25.40;40.20;;;;;;4975593;28;20077;-81
2021/05/21 12:41:42;;;;;;;10.50;2.42;;;25.20;40.00;;;;;;4977394;28;20430;-80
2021/05/21 12:44:08;;;;;;;9.98;2.40;;;25.10;40.00;;;;;;5007177;28;20030;-79
2021/05/21 12:46:52;;;;;;;8.43;4.25;;;25.00;40.30;;;;;;4974478;28;20491;-81
2021/05/21 12:49:32;;;;;;;5.57;3.13;;;24.90;41.40;;;;;;4974156;28;20022;-81